sensor_id;sensor_type;location;lat;lon;timestamp;P1;durP1;ratioP1;P2;durP2;ratioP2
39674;SDS011;27790;50.840;4.386;2023-12-28T00:00:17;3.05;;;2.05;;
39674;SDS011;27790;50.840;4.386;2023-12-28T00:02:42;4.40;;;2.10;;
39674;SDS011;27790;50.840;4.386;2023-12-28T00:05:08;2.65;;;2.42;;
39674;SDS011;27790;50.840;4.386;2023-12-28T00:07:33;4.15;;;2.13;;
39674;SDS011;27790;50.840;4.386;2023-12-28T00:10:00;4.60;;;2.30;;
39674;SDS011;27790;50.840;4.386;2023-12-28T00:12:27;5.40;;;2.40;;
39674;SDS011;27790;50.840;4.386;2023-12-28T00:14:52;4.25;;;2.42;;
39674;SDS011;27790;50.840;4.386;2023-12-28T00:17:18;5.20;;;3.13;;
39674;SDS011;27790;50.840;4.386;2023-12-28T00:19:44;3.97;;;2.30;;
39674;SDS011;27790;50.840;4.386;2023-12-28T00:22:09;4.03;;;2.35;;
39674;SDS011;27790;50.840;4.386;2023-12-28T00:24:35;4.53;;;2.55;;
39674;SDS011;27790;50.840;4.386;2023-12-28T00:27:00;2.95;;;1.83;;
39674;SDS011;27790;50.840;4.386;2023-12-28T00:29:26;2.67;;;1.90;;
39674;SDS011;27790;50.840;4.386;2023-12-28T00:31:53;5.60;;;2.58;;
39674;SDS011;27790;50.840;4.386;2023-12-28T00:34:19;4.13;;;1.98;;
39674;SDS011;27790;50.840;4.386;2023-12-28T00:36:44;3.92;;;2.53;;
39674;SDS011;27790;50.840;4.386;2023-12-28T00:39:10;2.38;;;2.17;;
39674;SDS011;27790;50.840;4.386;2023-12-28T00:41:35;2.42;;;2.22;;
39674;SDS011;27790;50.840;4.386;2023-12-28T00:44:01;3.40;;;1.98;;
39674;SDS011;27790;50.840;4.386;2023-12-28T00:46:27;2.25;;;2.05;;
39674;SDS011;27790;50.840;4.386;2023-12-28T00:48:53;4.55;;;2.25;;
39674;SDS011;27790;50.840;4.386;2023-12-28T00:51:19;4.68;;;2.50;;
39674;SDS011;27790;50.840;4.386;2023-12-28T00:53:45;6.05;;;2.40;;
39674;SDS011;27790;50.840;4.386;2023-12-28T00:56:11;7.93;;;2.10;;
39674;SDS011;27790;50.840;4.386;2023-12-28T00:58:39;6.63;;;2.67;;
39674;SDS011;27790;50.840;4.386;2023-12-28T01:01:05;2.92;;;2.10;;
39674;SDS011;27790;50.840;4.386;2023-12-28T01:03:31;4.90;;;2.20;;
39674;SDS011;27790;50.840;4.386;2023-12-28T01:05:56;8.88;;;2.78;;
39674;SDS011;27790;50.840;4.386;2023-12-28T01:08:22;6.93;;;2.15;;
39674;SDS011;27790;50.840;4.386;2023-12-28T01:10:47;4.82;;;2.65;;
39674;SDS011;27790;50.840;4.386;2023-12-28T01:13:13;9.70;;;2.90;;
39674;SDS011;27790;50.840;4.386;2023-12-28T01:15:38;3.95;;;2.50;;
39674;SDS011;27790;50.840;4.386;2023-12-28T01:18:04;2.58;;;2.30;;
39674;SDS011;27790;50.840;4.386;2023-12-28T01:20:30;6.43;;;2.80;;
39674;SDS011;27790;50.840;4.386;2023-12-28T01:22:55;3.33;;;2.50;;
39674;SDS011;27790;50.840;4.386;2023-12-28T01:25:21;4.43;;;2.08;;
39674;SDS011;27790;50.840;4.386;2023-12-28T01:27:46;4.22;;;2.85;;
39674;SDS011;27790;50.840;4.386;2023-12-28T01:30:12;3.38;;;2.95;;
39674;SDS011;27790;50.840;4.386;2023-12-28T01:32:37;5.22;;;2.30;;
39674;SDS011;27790;50.840;4.386;2023-12-28T01:35:03;5.68;;;1.75;;
39674;SDS011;27790;50.840;4.386;2023-12-28T01:37:28;4.60;;;2.40;;
39674;SDS011;27790;50.840;4.386;2023-12-28T01:39:56;2.28;;;2.08;;
39674;SDS011;27790;50.840;4.386;2023-12-28T01:42:21;5.50;;;2.55;;
39674;SDS011;27790;50.840;4.386;2023-12-28T01:44:47;5.78;;;2.50;;
39674;SDS011;27790;50.840;4.386;2023-12-28T01:47:12;6.43;;;2.17;;
39674;SDS011;27790;50.840;4.386;2023-12-28T01:49:38;3.50;;;2.20;;
39674;SDS011;27790;50.840;4.386;2023-12-28T01:52:04;4.22;;;2.17;;
39674;SDS011;27790;50.840;4.386;2023-12-28T01:54:31;3.10;;;2.20;;
39674;SDS011;27790;50.840;4.386;2023-12-28T01:56:59;3.03;;;2.25;;
39674;SDS011;27790;50.840;4.386;2023-12-28T01:59:26;4.68;;;1.73;;
39674;SDS011;27790;50.840;4.386;2023-12-28T02:01:52;3.70;;;2.08;;
39674;SDS011;27790;50.840;4.386;2023-12-28T02:04:18;4.03;;;1.85;;
39674;SDS011;27790;50.840;4.386;2023-12-28T02:06:51;3.00;;;1.92;;
39674;SDS011;27790;50.840;4.386;2023-12-28T02:09:17;3.72;;;2.20;;
39674;SDS011;27790;50.840;4.386;2023-12-28T02:11:43;6.97;;;1.83;;
39674;SDS011;27790;50.840;4.386;2023-12-28T02:14:08;4.80;;;1.83;;
39674;SDS011;27790;50.840;4.386;2023-12-28T02:16:39;3.03;;;1.88;;
39674;SDS011;27790;50.840;4.386;2023-12-28T02:19:24;4.00;;;2.65;;
39674;SDS011;27790;50.840;4.386;2023-12-28T02:21:56;5.57;;;1.52;;
39674;SDS011;27790;50.840;4.386;2023-12-28T02:24:24;3.40;;;1.80;;
39674;SDS011;27790;50.840;4.386;2023-12-28T02:26:50;2.13;;;1.60;;
39674;SDS011;27790;50.840;4.386;2023-12-28T02:29:15;3.95;;;1.98;;
39674;SDS011;27790;50.840;4.386;2023-12-28T02:31:51;2.53;;;1.80;;
39674;SDS011;27790;50.840;4.386;2023-12-28T02:34:27;5.67;;;1.77;;
39674;SDS011;27790;50.840;4.386;2023-12-28T02:36:55;4.50;;;1.80;;
39674;SDS011;27790;50.840;4.386;2023-12-28T02:39:22;5.35;;;2.20;;
39674;SDS011;27790;50.840;4.386;2023-12-28T02:41:49;12.43;;;2.53;;
39674;SDS011;27790;50.840;4.386;2023-12-28T02:44:15;4.32;;;2.35;;
39674;SDS011;27790;50.840;4.386;2023-12-28T02:46:41;11.50;;;1.90;;
39674;SDS011;27790;50.840;4.386;2023-12-28T02:49:06;11.40;;;2.78;;
39674;SDS011;27790;50.840;4.386;2023-12-28T02:51:32;5.95;;;2.33;;
39674;SDS011;27790;50.840;4.386;2023-12-28T02:53:57;4.82;;;2.10;;
39674;SDS011;27790;50.840;4.386;2023-12-28T02:56:23;3.58;;;1.95;;
39674;SDS011;27790;50.840;4.386;2023-12-28T02:58:48;5.80;;;2.60;;
39674;SDS011;27790;50.840;4.386;2023-12-28T03:01:14;6.22;;;1.83;;
39674;SDS011;27790;50.840;4.386;2023-12-28T03:03:39;6.75;;;2.75;;
39674;SDS011;27790;50.840;4.386;2023-12-28T03:06:05;5.20;;;2.30;;
39674;SDS011;27790;50.840;4.386;2023-12-28T03:08:30;4.40;;;2.03;;
39674;SDS011;27790;50.840;4.386;2023-12-28T03:10:56;4.88;;;1.85;;
39674;SDS011;27790;50.840;4.386;2023-12-28T03:13:22;5.93;;;2.30;;
39674;SDS011;27790;50.840;4.386;2023-12-28T03:15:47;3.45;;;2.22;;
39674;SDS011;27790;50.840;4.386;2023-12-28T03:18:13;2.28;;;2.03;;
39674;SDS011;27790;50.840;4.386;2023-12-28T03:20:38;6.95;;;2.00;;
39674;SDS011;27790;50.840;4.386;2023-12-28T03:23:04;3.67;;;2.17;;
39674;SDS011;27790;50.840;4.386;2023-12-28T03:25:30;3.42;;;1.65;;
39674;SDS011;27790;50.840;4.386;2023-12-28T03:27:55;5.47;;;1.95;;
39674;SDS011;27790;50.840;4.386;2023-12-28T03:30:21;7.40;;;2.08;;
39674;SDS011;27790;50.840;4.386;2023-12-28T03:32:46;8.57;;;2.40;;
39674;SDS011;27790;50.840;4.386;2023-12-28T03:35:12;8.55;;;2.00;;
39674;SDS011;27790;50.840;4.386;2023-12-28T03:37:37;8.43;;;2.20;;
39674;SDS011;27790;50.840;4.386;2023-12-28T03:40:03;9.02;;;3.88;;
39674;SDS011;27790;50.840;4.386;2023-12-28T03:42:29;6.00;;;1.90;;
39674;SDS011;27790;50.840;4.386;2023-12-28T03:44:55;9.25;;;1.90;;
39674;SDS011;27790;50.840;4.386;2023-12-28T03:47:20;14.27;;;2.70;;
39674;SDS011;27790;50.840;4.386;2023-12-28T03:49:46;8.25;;;2.03;;
39674;SDS011;27790;50.840;4.386;2023-12-28T03:52:12;5.00;;;1.67;;
39674;SDS011;27790;50.840;4.386;2023-12-28T03:54:37;7.13;;;2.00;;
39674;SDS011;27790;50.840;4.386;2023-12-28T03:57:04;5.25;;;1.92;;
39674;SDS011;27790;50.840;4.386;2023-12-28T03:59:29;10.50;;;2.25;;
39674;SDS011;27790;50.840;4.386;2023-12-28T04:01:55;5.20;;;2.42;;
39674;SDS011;27790;50.840;4.386;2023-12-28T04:04:20;9.18;;;2.58;;
39674;SDS011;27790;50.840;4.386;2023-12-28T04:06:46;8.52;;;2.65;;
39674;SDS011;27790;50.840;4.386;2023-12-28T04:09:12;10.23;;;2.33;;
39674;SDS011;27790;50.840;4.386;2023-12-28T04:11:37;10.57;;;1.55;;
39674;SDS011;27790;50.840;4.386;2023-12-28T04:14:03;9.32;;;2.30;;
39674;SDS011;27790;50.840;4.386;2023-12-28T04:16:28;7.30;;;2.08;;
39674;SDS011;27790;50.840;4.386;2023-12-28T04:18:54;7.43;;;2.08;;
39674;SDS011;27790;50.840;4.386;2023-12-28T04:21:19;9.43;;;2.80;;
39674;SDS011;27790;50.840;4.386;2023-12-28T04:23:45;6.32;;;1.70;;
39674;SDS011;27790;50.840;4.386;2023-12-28T04:26:11;7.32;;;2.92;;
39674;SDS011;27790;50.840;4.386;2023-12-28T04:28:42;9.27;;;1.90;;
39674;SDS011;27790;50.840;4.386;2023-12-28T04:31:08;10.95;;;2.00;;
39674;SDS011;27790;50.840;4.386;2023-12-28T04:33:33;6.53;;;2.03;;
39674;SDS011;27790;50.840;4.386;2023-12-28T04:36:02;9.88;;;2.00;;
39674;SDS011;27790;50.840;4.386;2023-12-28T04:38:29;6.25;;;2.20;;
39674;SDS011;27790;50.840;4.386;2023-12-28T04:40:55;9.90;;;1.98;;
39674;SDS011;27790;50.840;4.386;2023-12-28T04:43:21;9.35;;;2.55;;
39674;SDS011;27790;50.840;4.386;2023-12-28T04:45:48;6.45;;;2.13;;
39674;SDS011;27790;50.840;4.386;2023-12-28T04:48:14;7.35;;;2.00;;
39674;SDS011;27790;50.840;4.386;2023-12-28T04:50:40;6.55;;;1.85;;
39674;SDS011;27790;50.840;4.386;2023-12-28T04:53:05;9.30;;;2.63;;
39674;SDS011;27790;50.840;4.386;2023-12-28T04:55:31;8.65;;;1.83;;
39674;SDS011;27790;50.840;4.386;2023-12-28T04:57:56;8.25;;;2.30;;
39674;SDS011;27790;50.840;4.386;2023-12-28T05:00:22;5.25;;;1.65;;
39674;SDS011;27790;50.840;4.386;2023-12-28T05:02:48;12.43;;;2.47;;
39674;SDS011;27790;50.840;4.386;2023-12-28T05:05:13;6.68;;;2.10;;
39674;SDS011;27790;50.840;4.386;2023-12-28T05:07:39;11.05;;;2.60;;
39674;SDS011;27790;50.840;4.386;2023-12-28T05:10:04;5.50;;;1.65;;
39674;SDS011;27790;50.840;4.386;2023-12-28T05:12:30;7.10;;;2.47;;
39674;SDS011;27790;50.840;4.386;2023-12-28T05:14:56;13.10;;;2.20;;
39674;SDS011;27790;50.840;4.386;2023-12-28T05:17:21;8.93;;;2.10;;
39674;SDS011;27790;50.840;4.386;2023-12-28T05:19:47;7.47;;;2.35;;
39674;SDS011;27790;50.840;4.386;2023-12-28T05:22:13;13.88;;;2.15;;
39674;SDS011;27790;50.840;4.386;2023-12-28T05:24:38;9.50;;;1.85;;
39674;SDS011;27790;50.840;4.386;2023-12-28T05:27:04;9.52;;;2.47;;
39674;SDS011;27790;50.840;4.386;2023-12-28T05:29:29;17.05;;;3.65;;
39674;SDS011;27790;50.840;4.386;2023-12-28T05:31:55;10.13;;;2.42;;
39674;SDS011;27790;50.840;4.386;2023-12-28T05:34:20;9.32;;;2.30;;
39674;SDS011;27790;50.840;4.386;2023-12-28T05:36:46;10.85;;;2.47;;
39674;SDS011;27790;50.840;4.386;2023-12-28T05:39:11;8.90;;;2.15;;
39674;SDS011;27790;50.840;4.386;2023-12-28T05:41:40;9.23;;;2.30;;
39674;SDS011;27790;50.840;4.386;2023-12-28T05:44:05;9.20;;;2.35;;
39674;SDS011;27790;50.840;4.386;2023-12-28T05:46:31;13.25;;;2.72;;
39674;SDS011;27790;50.840;4.386;2023-12-28T05:48:57;8.30;;;2.33;;
39674;SDS011;27790;50.840;4.386;2023-12-28T05:51:22;9.10;;;1.90;;
39674;SDS011;27790;50.840;4.386;2023-12-28T05:53:48;8.60;;;1.80;;
39674;SDS011;27790;50.840;4.386;2023-12-28T05:56:14;9.40;;;1.95;;
39674;SDS011;27790;50.840;4.386;2023-12-28T05:58:39;9.32;;;2.63;;
39674;SDS011;27790;50.840;4.386;2023-12-28T06:01:05;8.90;;;2.20;;
39674;SDS011;27790;50.840;4.386;2023-12-28T06:03:30;11.57;;;3.00;;
39674;SDS011;27790;50.840;4.386;2023-12-28T06:05:56;11.02;;;2.55;;
39674;SDS011;27790;50.840;4.386;2023-12-28T06:08:22;11.93;;;2.00;;
39674;SDS011;27790;50.840;4.386;2023-12-28T06:10:47;15.80;;;3.03;;
39674;SDS011;27790;50.840;4.386;2023-12-28T06:13:13;9.40;;;2.80;;
39674;SDS011;27790;50.840;4.386;2023-12-28T06:15:39;9.13;;;3.38;;
39674;SDS011;27790;50.840;4.386;2023-12-28T06:18:05;11.85;;;2.63;;
39674;SDS011;27790;50.840;4.386;2023-12-28T06:20:31;8.75;;;1.98;;
39674;SDS011;27790;50.840;4.386;2023-12-28T06:22:56;16.75;;;3.40;;
39674;SDS011;27790;50.840;4.386;2023-12-28T06:25:22;14.23;;;3.30;;
39674;SDS011;27790;50.840;4.386;2023-12-28T06:27:47;9.20;;;2.03;;
39674;SDS011;27790;50.840;4.386;2023-12-28T06:30:13;11.65;;;2.85;;
39674;SDS011;27790;50.840;4.386;2023-12-28T06:32:39;10.93;;;2.22;;
39674;SDS011;27790;50.840;4.386;2023-12-28T06:35:05;11.77;;;1.90;;
39674;SDS011;27790;50.840;4.386;2023-12-28T06:37:31;12.98;;;3.47;;
39674;SDS011;27790;50.840;4.386;2023-12-28T06:39:56;13.13;;;3.30;;
39674;SDS011;27790;50.840;4.386;2023-12-28T06:42:22;10.38;;;1.65;;
39674;SDS011;27790;50.840;4.386;2023-12-28T06:44:47;13.68;;;2.40;;
39674;SDS011;27790;50.840;4.386;2023-12-28T06:47:13;9.50;;;2.08;;
39674;SDS011;27790;50.840;4.386;2023-12-28T06:49:38;17.92;;;2.15;;
39674;SDS011;27790;50.840;4.386;2023-12-28T06:52:04;9.85;;;3.00;;
39674;SDS011;27790;50.840;4.386;2023-12-28T06:54:29;14.82;;;3.00;;
39674;SDS011;27790;50.840;4.386;2023-12-28T06:56:55;9.55;;;2.38;;
39674;SDS011;27790;50.840;4.386;2023-12-28T06:59:20;13.57;;;2.67;;
39674;SDS011;27790;50.840;4.386;2023-12-28T07:01:46;10.95;;;2.80;;
39674;SDS011;27790;50.840;4.386;2023-12-28T07:04:13;12.07;;;3.00;;
39674;SDS011;27790;50.840;4.386;2023-12-28T07:06:38;14.25;;;2.17;;
39674;SDS011;27790;50.840;4.386;2023-12-28T07:09:04;17.77;;;2.80;;
39674;SDS011;27790;50.840;4.386;2023-12-28T07:11:30;11.98;;;2.85;;
39674;SDS011;27790;50.840;4.386;2023-12-28T07:13:56;15.60;;;3.13;;
39674;SDS011;27790;50.840;4.386;2023-12-28T07:16:21;15.27;;;2.60;;
39674;SDS011;27790;50.840;4.386;2023-12-28T07:18:47;9.18;;;2.33;;
39674;SDS011;27790;50.840;4.386;2023-12-28T07:21:13;10.77;;;2.70;;
39674;SDS011;27790;50.840;4.386;2023-12-28T07:23:38;11.45;;;2.40;;
39674;SDS011;27790;50.840;4.386;2023-12-28T07:26:04;19.92;;;3.55;;
39674;SDS011;27790;50.840;4.386;2023-12-28T07:28:30;17.40;;;3.28;;
39674;SDS011;27790;50.840;4.386;2023-12-28T07:30:56;15.65;;;3.42;;
39674;SDS011;27790;50.840;4.386;2023-12-28T07:33:21;21.15;;;4.05;;
39674;SDS011;27790;50.840;4.386;2023-12-28T07:35:47;16.38;;;2.92;;
39674;SDS011;27790;50.840;4.386;2023-12-28T07:38:13;12.90;;;2.50;;
39674;SDS011;27790;50.840;4.386;2023-12-28T07:40:38;16.83;;;4.20;;
39674;SDS011;27790;50.840;4.386;2023-12-28T07:43:04;17.38;;;2.70;;
39674;SDS011;27790;50.840;4.386;2023-12-28T07:45:30;11.68;;;2.58;;
39674;SDS011;27790;50.840;4.386;2023-12-28T07:47:57;13.18;;;3.03;;
39674;SDS011;27790;50.840;4.386;2023-12-28T07:50:24;22.17;;;3.10;;
39674;SDS011;27790;50.840;4.386;2023-12-28T07:52:49;13.98;;;2.20;;
39674;SDS011;27790;50.840;4.386;2023-12-28T07:55:15;11.77;;;2.13;;
39674;SDS011;27790;50.840;4.386;2023-12-28T07:57:41;9.80;;;2.90;;
39674;SDS011;27790;50.840;4.386;2023-12-28T08:00:07;16.52;;;2.97;;
39674;SDS011;27790;50.840;4.386;2023-12-28T08:02:34;17.33;;;2.90;;
39674;SDS011;27790;50.840;4.386;2023-12-28T08:04:59;12.60;;;2.65;;
39674;SDS011;27790;50.840;4.386;2023-12-28T08:07:25;20.45;;;3.03;;
39674;SDS011;27790;50.840;4.386;2023-12-28T08:09:50;16.40;;;1.92;;
39674;SDS011;27790;50.840;4.386;2023-12-28T08:12:16;11.68;;;2.60;;
39674;SDS011;27790;50.840;4.386;2023-12-28T08:14:46;12.95;;;2.88;;
39674;SDS011;27790;50.840;4.386;2023-12-28T08:17:11;9.43;;;3.10;;
39674;SDS011;27790;50.840;4.386;2023-12-28T08:19:37;11.57;;;2.38;;
39674;SDS011;27790;50.840;4.386;2023-12-28T08:22:03;19.05;;;3.15;;
39674;SDS011;27790;50.840;4.386;2023-12-28T08:24:28;8.43;;;2.33;;
39674;SDS011;27790;50.840;4.386;2023-12-28T08:26:54;10.20;;;2.72;;
39674;SDS011;27790;50.840;4.386;2023-12-28T08:29:24;10.35;;;2.58;;
39674;SDS011;27790;50.840;4.386;2023-12-28T08:31:49;15.00;;;2.47;;
39674;SDS011;27790;50.840;4.386;2023-12-28T08:34:15;12.02;;;2.38;;
39674;SDS011;27790;50.840;4.386;2023-12-28T08:36:41;14.50;;;3.50;;
39674;SDS011;27790;50.840;4.386;2023-12-28T08:39:06;20.77;;;2.60;;
39674;SDS011;27790;50.840;4.386;2023-12-28T08:41:32;11.30;;;2.15;;
39674;SDS011;27790;50.840;4.386;2023-12-28T08:43:57;15.82;;;2.13;;
39674;SDS011;27790;50.840;4.386;2023-12-28T08:46:23;13.55;;;3.28;;
39674;SDS011;27790;50.840;4.386;2023-12-28T08:48:51;13.85;;;3.22;;
39674;SDS011;27790;50.840;4.386;2023-12-28T08:51:17;19.60;;;3.35;;
39674;SDS011;27790;50.840;4.386;2023-12-28T08:53:43;15.50;;;2.78;;
39674;SDS011;27790;50.840;4.386;2023-12-28T08:56:19;20.75;;;4.30;;
39674;SDS011;27790;50.840;4.386;2023-12-28T08:58:45;25.35;;;3.72;;
39674;SDS011;27790;50.840;4.386;2023-12-28T09:01:19;12.52;;;3.15;;
39674;SDS011;27790;50.840;4.386;2023-12-28T09:03:47;15.15;;;3.00;;
39674;SDS011;27790;50.840;4.386;2023-12-28T09:06:17;10.52;;;2.13;;
39674;SDS011;27790;50.840;4.386;2023-12-28T09:08:44;10.90;;;3.63;;
39674;SDS011;27790;50.840;4.386;2023-12-28T09:11:12;13.07;;;2.72;;
39674;SDS011;27790;50.840;4.386;2023-12-28T09:13:39;14.20;;;2.90;;
39674;SDS011;27790;50.840;4.386;2023-12-28T09:16:05;13.52;;;1.85;;
39674;SDS011;27790;50.840;4.386;2023-12-28T09:18:32;12.48;;;2.25;;
39674;SDS011;27790;50.840;4.386;2023-12-28T09:20:58;9.05;;;2.38;;
39674;SDS011;27790;50.840;4.386;2023-12-28T09:23:24;15.07;;;3.67;;
39674;SDS011;27790;50.840;4.386;2023-12-28T09:25:49;16.85;;;3.42;;
39674;SDS011;27790;50.840;4.386;2023-12-28T09:28:15;16.33;;;3.63;;
39674;SDS011;27790;50.840;4.386;2023-12-28T09:30:40;26.05;;;3.35;;
39674;SDS011;27790;50.840;4.386;2023-12-28T09:33:06;11.95;;;2.25;;
39674;SDS011;27790;50.840;4.386;2023-12-28T09:35:32;12.32;;;2.60;;
39674;SDS011;27790;50.840;4.386;2023-12-28T09:37:58;16.05;;;2.92;;
39674;SDS011;27790;50.840;4.386;2023-12-28T09:40:24;7.70;;;2.72;;
39674;SDS011;27790;50.840;4.386;2023-12-28T09:45:39;11.32;;;2.67;;
39674;SDS011;27790;50.840;4.386;2023-12-28T09:48:05;14.00;;;2.80;;
39674;SDS011;27790;50.840;4.386;2023-12-28T09:50:31;14.93;;;2.53;;
39674;SDS011;27790;50.840;4.386;2023-12-28T09:52:57;16.25;;;3.03;;
39674;SDS011;27790;50.840;4.386;2023-12-28T09:55:23;20.73;;;2.65;;
39674;SDS011;27790;50.840;4.386;2023-12-28T09:57:50;21.58;;;4.00;;
39674;SDS011;27790;50.840;4.386;2023-12-28T10:00:16;22.10;;;3.20;;
39674;SDS011;27790;50.840;4.386;2023-12-28T10:02:43;12.35;;;3.65;;
39674;SDS011;27790;50.840;4.386;2023-12-28T10:05:15;14.65;;;2.80;;
39674;SDS011;27790;50.840;4.386;2023-12-28T10:07:42;11.00;;;2.42;;
39674;SDS011;27790;50.840;4.386;2023-12-28T10:10:08;17.20;;;2.80;;
39674;SDS011;27790;50.840;4.386;2023-12-28T10:12:34;13.43;;;2.33;;
39674;SDS011;27790;50.840;4.386;2023-12-28T10:15:00;16.67;;;3.47;;
39674;SDS011;27790;50.840;4.386;2023-12-28T10:17:26;21.60;;;3.28;;
39674;SDS011;27790;50.840;4.386;2023-12-28T10:19:52;11.65;;;3.58;;
39674;SDS011;27790;50.840;4.386;2023-12-28T10:22:18;17.73;;;3.90;;
39674;SDS011;27790;50.840;4.386;2023-12-28T10:24:45;15.80;;;2.58;;
39674;SDS011;27790;50.840;4.386;2023-12-28T10:27:10;12.00;;;3.33;;
39674;SDS011;27790;50.840;4.386;2023-12-28T10:29:40;15.65;;;3.28;;
39674;SDS011;27790;50.840;4.386;2023-12-28T10:32:05;11.23;;;3.03;;
39674;SDS011;27790;50.840;4.386;2023-12-28T10:34:31;16.23;;;2.75;;
39674;SDS011;27790;50.840;4.386;2023-12-28T10:36:57;19.90;;;3.53;;
39674;SDS011;27790;50.840;4.386;2023-12-28T10:39:24;15.60;;;2.95;;
39674;SDS011;27790;50.840;4.386;2023-12-28T10:41:52;23.67;;;3.45;;
39674;SDS011;27790;50.840;4.386;2023-12-28T10:44:20;13.23;;;2.75;;
39674;SDS011;27790;50.840;4.386;2023-12-28T10:46:53;16.58;;;2.97;;
39674;SDS011;27790;50.840;4.386;2023-12-28T10:49:22;15.80;;;3.45;;
39674;SDS011;27790;50.840;4.386;2023-12-28T10:51:51;15.63;;;2.88;;
39674;SDS011;27790;50.840;4.386;2023-12-28T10:56:50;14.23;;;3.45;;
39674;SDS011;27790;50.840;4.386;2023-12-28T11:01:54;21.83;;;3.65;;
39674;SDS011;27790;50.840;4.386;2023-12-28T11:04:31;14.10;;;2.42;;
39674;SDS011;27790;50.840;4.386;2023-12-28T11:07:09;20.13;;;3.88;;
39674;SDS011;27790;50.840;4.386;2023-12-28T11:09:37;13.38;;;3.28;;
39674;SDS011;27790;50.840;4.386;2023-12-28T11:12:07;17.80;;;3.60;;
39674;SDS011;27790;50.840;4.386;2023-12-28T11:14:33;11.40;;;3.28;;
39674;SDS011;27790;50.840;4.386;2023-12-28T11:17:00;21.45;;;3.60;;
39674;SDS011;27790;50.840;4.386;2023-12-28T11:19:26;10.02;;;3.05;;
39674;SDS011;27790;50.840;4.386;2023-12-28T11:21:53;28.77;;;4.32;;
39674;SDS011;27790;50.840;4.386;2023-12-28T11:24:21;20.40;;;4.38;;
39674;SDS011;27790;50.840;4.386;2023-12-28T11:26:53;22.33;;;3.47;;
39674;SDS011;27790;50.840;4.386;2023-12-28T11:29:19;18.50;;;3.28;;
39674;SDS011;27790;50.840;4.386;2023-12-28T11:31:50;16.42;;;2.80;;
39674;SDS011;27790;50.840;4.386;2023-12-28T11:34:16;18.55;;;3.28;;
39674;SDS011;27790;50.840;4.386;2023-12-28T11:36:49;22.65;;;3.42;;
39674;SDS011;27790;50.840;4.386;2023-12-28T11:39:24;13.85;;;3.00;;
39674;SDS011;27790;50.840;4.386;2023-12-28T11:42:05;20.20;;;4.00;;
39674;SDS011;27790;50.840;4.386;2023-12-28T11:44:42;16.73;;;4.22;;
39674;SDS011;27790;50.840;4.386;2023-12-28T11:47:21;20.50;;;4.43;;
39674;SDS011;27790;50.840;4.386;2023-12-28T11:55:08;15.10;;;3.70;;
39674;SDS011;27790;50.840;4.386;2023-12-28T11:57:36;14.05;;;3.20;;
39674;SDS011;27790;50.840;4.386;2023-12-28T12:00:03;18.15;;;3.80;;
39674;SDS011;27790;50.840;4.386;2023-12-28T12:02:29;17.30;;;3.10;;
39674;SDS011;27790;50.840;4.386;2023-12-28T12:04:54;12.93;;;3.30;;
39674;SDS011;27790;50.840;4.386;2023-12-28T12:07:26;14.60;;;3.33;;
39674;SDS011;27790;50.840;4.386;2023-12-28T12:09:55;22.02;;;3.78;;
39674;SDS011;27790;50.840;4.386;2023-12-28T12:12:23;23.98;;;3.30;;
39674;SDS011;27790;50.840;4.386;2023-12-28T12:14:50;15.70;;;3.13;;
39674;SDS011;27790;50.840;4.386;2023-12-28T12:17:15;16.70;;;2.92;;
39674;SDS011;27790;50.840;4.386;2023-12-28T12:19:42;22.67;;;3.28;;
39674;SDS011;27790;50.840;4.386;2023-12-28T12:22:08;17.70;;;3.20;;
39674;SDS011;27790;50.840;4.386;2023-12-28T12:24:33;15.35;;;2.92;;
39674;SDS011;27790;50.840;4.386;2023-12-28T12:27:00;13.85;;;3.15;;
39674;SDS011;27790;50.840;4.386;2023-12-28T12:29:27;14.65;;;2.63;;
39674;SDS011;27790;50.840;4.386;2023-12-28T12:31:55;19.95;;;3.95;;
39674;SDS011;27790;50.840;4.386;2023-12-28T12:34:21;14.32;;;3.50;;
39674;SDS011;27790;50.840;4.386;2023-12-28T12:36:47;15.30;;;2.40;;
39674;SDS011;27790;50.840;4.386;2023-12-28T12:39:14;17.92;;;2.80;;
39674;SDS011;27790;50.840;4.386;2023-12-28T12:41:39;20.60;;;3.00;;
39674;SDS011;27790;50.840;4.386;2023-12-28T12:44:05;16.35;;;2.80;;
39674;SDS011;27790;50.840;4.386;2023-12-28T12:46:32;13.68;;;3.85;;
39674;SDS011;27790;50.840;4.386;2023-12-28T12:48:58;23.02;;;4.30;;
39674;SDS011;27790;50.840;4.386;2023-12-28T12:51:25;14.23;;;3.35;;
39674;SDS011;27790;50.840;4.386;2023-12-28T12:53:57;14.35;;;2.67;;
39674;SDS011;27790;50.840;4.386;2023-12-28T12:56:25;25.93;;;3.23;;
39674;SDS011;27790;50.840;4.386;2023-12-28T12:58:51;12.07;;;2.90;;
39674;SDS011;27790;50.840;4.386;2023-12-28T13:01:17;11.43;;;2.40;;
39674;SDS011;27790;50.840;4.386;2023-12-28T13:03:45;11.35;;;2.78;;
39674;SDS011;27790;50.840;4.386;2023-12-28T13:06:10;14.63;;;2.40;;
39674;SDS011;27790;50.840;4.386;2023-12-28T13:08:36;19.65;;;3.42;;
39674;SDS011;27790;50.840;4.386;2023-12-28T13:11:02;17.10;;;4.03;;
39674;SDS011;27790;50.840;4.386;2023-12-28T13:13:27;13.95;;;3.13;;
39674;SDS011;27790;50.840;4.386;2023-12-28T13:15:53;11.15;;;3.22;;
39674;SDS011;27790;50.840;4.386;2023-12-28T13:18:18;13.23;;;3.30;;
39674;SDS011;27790;50.840;4.386;2023-12-28T13:20:44;12.65;;;3.60;;
39674;SDS011;27790;50.840;4.386;2023-12-28T13:23:10;17.90;;;3.20;;
39674;SDS011;27790;50.840;4.386;2023-12-28T13:25:37;15.00;;;4.03;;
39674;SDS011;27790;50.840;4.386;2023-12-28T13:28:02;17.38;;;2.70;;
39674;SDS011;27790;50.840;4.386;2023-12-28T13:30:28;17.17;;;3.70;;
39674;SDS011;27790;50.840;4.386;2023-12-28T13:32:57;19.15;;;2.65;;
39674;SDS011;27790;50.840;4.386;2023-12-28T13:35:22;16.35;;;4.07;;
39674;SDS011;27790;50.840;4.386;2023-12-28T13:37:48;15.18;;;2.90;;
39674;SDS011;27790;50.840;4.386;2023-12-28T13:40:14;13.20;;;2.15;;
39674;SDS011;27790;50.840;4.386;2023-12-28T13:42:40;14.23;;;3.38;;
39674;SDS011;27790;50.840;4.386;2023-12-28T13:45:06;17.30;;;3.20;;
39674;SDS011;27790;50.840;4.386;2023-12-28T13:47:32;10.40;;;2.05;;
39674;SDS011;27790;50.840;4.386;2023-12-28T13:52:27;21.25;;;3.08;;
39674;SDS011;27790;50.840;4.386;2023-12-28T13:54:53;12.65;;;2.40;;
39674;SDS011;27790;50.840;4.386;2023-12-28T13:57:18;17.52;;;2.97;;
39674;SDS011;27790;50.840;4.386;2023-12-28T13:59:44;18.15;;;2.50;;
39674;SDS011;27790;50.840;4.386;2023-12-28T14:02:09;18.33;;;3.03;;
39674;SDS011;27790;50.840;4.386;2023-12-28T14:04:35;16.98;;;3.03;;
39674;SDS011;27790;50.840;4.386;2023-12-28T14:07:00;14.63;;;2.13;;
39674;SDS011;27790;50.840;4.386;2023-12-28T14:09:26;17.17;;;3.63;;
39674;SDS011;27790;50.840;4.386;2023-12-28T14:11:51;9.20;;;2.75;;
39674;SDS011;27790;50.840;4.386;2023-12-28T14:14:17;12.73;;;2.20;;
39674;SDS011;27790;50.840;4.386;2023-12-28T14:16:42;14.82;;;2.72;;
39674;SDS011;27790;50.840;4.386;2023-12-28T14:19:08;18.52;;;3.67;;
39674;SDS011;27790;50.840;4.386;2023-12-28T14:21:37;13.82;;;2.97;;
39674;SDS011;27790;50.840;4.386;2023-12-28T14:24:03;16.10;;;2.85;;
39674;SDS011;27790;50.840;4.386;2023-12-28T14:26:31;14.57;;;2.92;;
39674;SDS011;27790;50.840;4.386;2023-12-28T14:28:58;11.60;;;2.45;;
39674;SDS011;27790;50.840;4.386;2023-12-28T14:31:24;13.93;;;2.63;;
39674;SDS011;27790;50.840;4.386;2023-12-28T14:33:51;7.68;;;1.90;;
39674;SDS011;27790;50.840;4.386;2023-12-28T14:36:34;6.93;;;1.92;;
39674;SDS011;27790;50.840;4.386;2023-12-28T14:39:02;13.63;;;2.65;;
39674;SDS011;27790;50.840;4.386;2023-12-28T14:41:35;18.48;;;4.70;;
39674;SDS011;27790;50.840;4.386;2023-12-28T14:44:02;19.13;;;3.00;;
39674;SDS011;27790;50.840;4.386;2023-12-28T14:46:28;20.63;;;3.85;;
39674;SDS011;27790;50.840;4.386;2023-12-28T14:48:54;11.23;;;2.95;;
39674;SDS011;27790;50.840;4.386;2023-12-28T14:51:20;19.52;;;3.00;;